sensor_id;sensor_type;location;lat;lon;timestamp;pressure;altitude;pressure_sealevel;temperature;humidity
50684;BME280;36654;45.042;38.994;2022-12-24T00:00:26;101270.22;;;3.21;78.12
50684;BME280;36654;45.042;38.994;2022-12-24T00:02:52;101263.06;;;3.17;78.13
50684;BME280;36654;45.042;38.994;2022-12-24T00:05:17;101261.25;;;3.16;78.52
50684;BME280;36654;45.042;38.994;2022-12-24T00:07:43;101210.09;;;2.89;78.39
50684;BME280;36654;45.042;38.994;2022-12-24T00:10:09;101256.00;;;3.16;78.69
50684;BME280;36654;45.042;38.994;2022-12-24T00:12:35;101261.34;;;3.18;78.82
50684;BME280;36654;45.042;38.994;2022-12-24T00:15:02;101233.69;;;3.07;78.84
50684;BME280;36654;45.042;38.994;2022-12-24T00:17:28;101250.00;;;3.19;78.64
50684;BME280;36654;45.042;38.994;2022-12-24T00:19:54;101237.75;;;3.18;78.89
50684;BME280;36654;45.042;38.994;2022-12-24T00:22:19;101230.63;;;3.15;78.87
50684;BME280;36654;45.042;38.994;2022-12-24T00:24:45;101237.91;;;3.21;78.76
50684;BME280;36654;45.042;38.994;2022-12-24T00:27:11;101235.28;;;3.21;78.95
50684;BME280;36654;45.042;38.994;2022-12-24T00:29:36;101190.28;;;2.94;79.04
50684;BME280;36654;45.042;38.994;2022-12-24T00:32:02;101188.78;;;2.99;78.75
50684;BME280;36654;45.042;38.994;2022-12-24T00:34:32;101239.69;;;3.22;79.06
50684;BME280;36654;45.042;38.994;2022-12-24T00:36:58;101221.28;;;3.20;78.95
50684;BME280;36654;45.042;38.994;2022-12-24T00:39:24;101191.50;;;3.00;78.83
50684;BME280;36654;45.042;38.994;2022-12-24T00:41:50;101232.50;;;3.18;78.81
50684;BME280;36654;45.042;38.994;2022-12-24T00:44:15;101241.63;;;3.26;79.13
50684;BME280;36654;45.042;38.994;2022-12-24T00:46:41;101238.97;;;3.24;79.04
50684;BME280;36654;45.042;38.994;2022-12-24T00:49:07;101119.59;;;2.58;79.03
50684;BME280;36654;45.042;38.994;2022-12-24T00:51:34;101233.72;;;3.24;79.03
50684;BME280;36654;45.042;38.994;2022-12-24T00:54:00;101244.03;;;3.21;79.12
50684;BME280;36654;45.042;38.994;2022-12-24T00:56:26;101236.53;;;3.11;79.06
50684;BME280;36654;45.042;38.994;2022-12-24T00:58:52;101234.00;;;3.13;79.05
50684;BME280;36654;45.042;38.994;2022-12-24T01:01:18;101242.66;;;3.12;79.59
50684;BME280;36654;45.042;38.994;2022-12-24T01:03:44;101233.78;;;3.08;79.49
50684;BME280;36654;45.042;38.994;2022-12-24T01:06:15;101234.75;;;3.10;79.76
50684;BME280;36654;45.042;38.994;2022-12-24T01:08:42;101232.03;;;3.09;79.59
50684;BME280;36654;45.042;38.994;2022-12-24T01:11:08;101239.84;;;3.07;79.69
50684;BME280;36654;45.042;38.994;2022-12-24T01:13:35;101215.97;;;3.01;79.92
50684;BME280;36654;45.042;38.994;2022-12-24T01:16:01;101163.94;;;2.73;79.97
50684;BME280;36654;45.042;38.994;2022-12-24T01:18:27;101226.66;;;3.06;79.73
50684;BME280;36654;45.042;38.994;2022-12-24T01:21:00;101206.13;;;2.97;79.71
50684;BME280;36654;45.042;38.994;2022-12-24T01:23:27;101208.94;;;3.00;79.73
50684;BME280;36654;45.042;38.994;2022-12-24T01:25:53;101203.31;;;2.92;79.88
50684;BME280;36654;45.042;38.994;2022-12-24T01:28:20;101232.88;;;3.08;80.05
50684;BME280;36654;45.042;38.994;2022-12-24T01:30:47;101213.47;;;3.04;80.05
50684;BME280;36654;45.042;38.994;2022-12-24T01:33:13;101213.44;;;3.02;79.80
50684;BME280;36654;45.042;38.994;2022-12-24T01:35:43;101227.56;;;3.06;79.97
50684;BME280;36654;45.042;38.994;2022-12-24T01:38:09;101219.47;;;3.01;79.84
50684;BME280;36654;45.042;38.994;2022-12-24T01:40:37;101226.56;;;3.04;79.77
50684;BME280;36654;45.042;38.994;2022-12-24T01:43:22;101209.44;;;2.93;79.81
50684;BME280;36654;45.042;38.994;2022-12-24T01:54:31;101202.75;;;2.81;79.60
50684;BME280;36654;45.042;38.994;2022-12-24T01:57:29;101210.63;;;2.81;79.85
50684;BME280;36654;45.042;38.994;2022-12-24T01:59:57;101198.03;;;2.74;80.08
50684;BME280;36654;45.042;38.994;2022-12-24T02:02:26;101208.97;;;2.84;80.31
50684;BME280;36654;45.042;38.994;2022-12-24T02:05:11;101213.47;;;2.86;80.24
50684;BME280;36654;45.042;38.994;2022-12-24T02:07:40;101202.72;;;2.80;80.42
50684;BME280;36654;45.042;38.994;2022-12-24T02:10:07;101208.00;;;2.81;80.21
50684;BME280;36654;45.042;38.994;2022-12-24T02:12:36;101208.84;;;2.80;80.51
50684;BME280;36654;45.042;38.994;2022-12-24T02:15:04;101219.38;;;2.82;80.39
50684;BME280;36654;45.042;38.994;2022-12-24T02:17:58;101210.63;;;2.81;80.40
50684;BME280;36654;45.042;38.994;2022-12-24T02:29:20;101213.53;;;2.70;80.62
50684;BME280;36654;45.042;38.994;2022-12-24T02:32:01;101205.06;;;2.57;80.63
50684;BME280;36654;45.042;38.994;2022-12-24T02:34:36;101183.91;;;2.36;80.65
50684;BME280;36654;45.042;38.994;2022-12-24T02:37:16;101224.03;;;2.53;80.70
50684;BME280;36654;45.042;38.994;2022-12-24T02:42:23;101224.81;;;2.34;81.10
50684;BME280;36654;45.042;38.994;2022-12-24T02:44:54;101213.19;;;2.29;80.92
50684;BME280;36654;45.042;38.994;2022-12-24T02:47:24;101237.88;;;2.34;81.06
50684;BME280;36654;45.042;38.994;2022-12-24T02:49:51;101222.91;;;2.32;81.15
50684;BME280;36654;45.042;38.994;2022-12-24T02:55:01;101212.91;;;2.23;81.28
50684;BME280;36654;45.042;38.994;2022-12-24T03:00:17;101221.72;;;2.25;81.52
50684;BME280;36654;45.042;38.994;2022-12-24T03:03:06;101214.69;;;2.24;81.67
50684;BME280;36654;45.042;38.994;2022-12-24T03:10:56;101219.59;;;2.18;81.46
50684;BME280;36654;45.042;38.994;2022-12-24T03:13:25;101210.63;;;2.13;81.47
50684;BME280;36654;45.042;38.994;2022-12-24T03:15:51;101207.84;;;2.10;81.46
50684;BME280;36654;45.042;38.994;2022-12-24T03:18:22;101201.13;;;1.99;81.66
50684;BME280;36654;45.042;38.994;2022-12-24T03:21:04;101206.50;;;2.02;81.46
50684;BME280;36654;45.042;38.994;2022-12-24T03:23:31;101229.06;;;2.00;81.61
50684;BME280;36654;45.042;38.994;2022-12-24T03:25:59;101211.75;;;2.02;81.66
50684;BME280;36654;45.042;38.994;2022-12-24T03:28:27;101224.03;;;2.03;81.54
50684;BME280;36654;45.042;38.994;2022-12-24T03:30:53;101215.34;;;2.04;81.66
50684;BME280;36654;45.042;38.994;2022-12-24T03:33:19;101200.47;;;1.86;81.41
50684;BME280;36654;45.042;38.994;2022-12-24T03:35:45;101212.22;;;1.94;81.54
50684;BME280;36654;45.042;38.994;2022-12-24T03:38:11;101214.38;;;1.85;81.62
50684;BME280;36654;45.042;38.994;2022-12-24T03:40:37;101188.06;;;1.66;81.79
50684;BME280;36654;45.042;38.994;2022-12-24T03:43:02;101185.28;;;1.63;81.58
50684;BME280;36654;45.042;38.994;2022-12-24T03:45:28;101194.84;;;1.62;81.95
50684;BME280;36654;45.042;38.994;2022-12-24T03:47:54;101226.13;;;1.77;81.99
50684;BME280;36654;45.042;38.994;2022-12-24T03:50:19;101223.69;;;1.80;81.98
50684;BME280;36654;45.042;38.994;2022-12-24T03:52:45;101166.97;;;1.46;82.10
50684;BME280;36654;45.042;38.994;2022-12-24T03:55:10;101231.53;;;1.80;81.89
50684;BME280;36654;45.042;38.994;2022-12-24T03:57:36;101231.53;;;1.80;82.00
50684;BME280;36654;45.042;38.994;2022-12-24T04:00:04;101236.56;;;1.77;82.24
50684;BME280;36654;45.042;38.994;2022-12-24T04:02:30;101240.00;;;1.76;82.22
50684;BME280;36654;45.042;38.994;2022-12-24T04:04:56;101232.06;;;1.75;82.35
50684;BME280;36654;45.042;38.994;2022-12-24T04:07:22;101226.78;;;1.73;82.21
50684;BME280;36654;45.042;38.994;2022-12-24T04:09:47;101216.44;;;1.60;82.01
50684;BME280;36654;45.042;38.994;2022-12-24T04:12:13;101246.53;;;1.68;82.29
50684;BME280;36654;45.042;38.994;2022-12-24T04:14:38;101231.97;;;1.57;82.40
50684;BME280;36654;45.042;38.994;2022-12-24T04:17:04;101226.59;;;1.54;82.26
50684;BME280;36654;45.042;38.994;2022-12-24T04:19:30;101227.47;;;1.54;82.38
50684;BME280;36654;45.042;38.994;2022-12-24T04:21:55;101217.28;;;1.42;82.24
50684;BME280;36654;45.042;38.994;2022-12-24T04:24:21;101246.91;;;1.59;82.43
50684;BME280;36654;45.042;38.994;2022-12-24T04:26:47;101203.13;;;1.39;82.35
50684;BME280;36654;45.042;38.994;2022-12-24T04:29:12;101252.09;;;1.58;82.48
50684;BME280;36654;45.042;38.994;2022-12-24T04:31:38;101251.88;;;1.55;82.51
50684;BME280;36654;45.042;38.994;2022-12-24T04:34:03;101200.13;;;1.16;82.31
50684;BME280;36654;45.042;38.994;2022-12-24T04:36:29;101257.41;;;1.44;82.40
50684;BME280;36654;45.042;38.994;2022-12-24T04:38:55;101251.03;;;1.39;82.39
50684;BME280;36654;45.042;38.994;2022-12-24T04:41:21;101257.97;;;1.39;82.61
50684;BME280;36654;45.042;38.994;2022-12-24T04:43:47;101250.41;;;1.43;82.80
50684;BME280;36654;45.042;38.994;2022-12-24T04:46:15;101206.16;;;1.15;82.77
50684;BME280;36654;45.042;38.994;2022-12-24T04:48:48;101210.84;;;1.21;83.05
50684;BME280;36654;45.042;38.994;2022-12-24T04:51:15;101265.25;;;1.44;82.77
50684;BME280;36654;45.042;38.994;2022-12-24T04:53:42;101209.84;;;1.19;82.78
50684;BME280;36654;45.042;38.994;2022-12-24T04:56:11;101248.63;;;1.42;82.79
50684;BME280;36654;45.042;38.994;2022-12-24T04:58:37;101258.66;;;1.51;82.90
50684;BME280;36654;45.042;38.994;2022-12-24T05:01:07;101242.31;;;1.39;82.81
50684;BME280;36654;45.042;38.994;2022-12-24T05:03:36;101255.97;;;1.49;82.84
50684;BME280;36654;45.042;38.994;2022-12-24T05:06:03;101252.38;;;1.47;82.71
50684;BME280;36654;45.042;38.994;2022-12-24T05:08:29;101261.75;;;1.44;82.31
50684;BME280;36654;45.042;38.994;2022-12-24T05:10:56;101233.94;;;1.29;82.43
50684;BME280;36654;45.042;38.994;2022-12-24T05:13:23;101230.44;;;1.29;82.74
50684;BME280;36654;45.042;38.994;2022-12-24T05:15:49;101272.56;;;1.50;82.56
50684;BME280;36654;45.042;38.994;2022-12-24T05:18:15;101264.78;;;1.51;82.47
50684;BME280;36654;45.042;38.994;2022-12-24T05:20:41;101219.81;;;1.26;82.39
50684;BME280;36654;45.042;38.994;2022-12-24T05:23:09;101270.19;;;1.55;82.39
50684;BME280;36654;45.042;38.994;2022-12-24T05:25:57;101217.22;;;1.26;82.18
50684;BME280;36654;45.042;38.994;2022-12-24T05:28:41;101242.88;;;1.33;82.19
50684;BME280;36654;45.042;38.994;2022-12-24T05:31:07;101276.06;;;1.50;82.42
50684;BME280;36654;45.042;38.994;2022-12-24T05:33:33;101257.25;;;1.41;82.24
50684;BME280;36654;45.042;38.994;2022-12-24T05:35:58;101222.91;;;1.19;82.14
50684;BME280;36654;45.042;38.994;2022-12-24T05:38:24;101193.63;;;1.10;82.13
50684;BME280;36654;45.042;38.994;2022-12-24T05:40:50;101256.63;;;1.45;82.23
50684;BME280;36654;45.042;38.994;2022-12-24T05:43:15;101206.34;;;1.18;82.15
50684;BME280;36654;45.042;38.994;2022-12-24T05:45:41;101232.25;;;1.30;82.36
50684;BME280;36654;45.042;38.994;2022-12-24T05:48:06;101262.00;;;1.48;82.14
50684;BME280;36654;45.042;38.994;2022-12-24T05:50:33;101224.31;;;1.28;82.02
50684;BME280;36654;45.042;38.994;2022-12-24T05:52:59;101197.41;;;1.15;82.26
50684;BME280;36654;45.042;38.994;2022-12-24T05:55:25;101217.22;;;1.26;81.95
50684;BME280;36654;45.042;38.994;2022-12-24T05:57:50;101270.00;;;1.51;82.08
50684;BME280;36654;45.042;38.994;2022-12-24T06:00:16;101261.75;;;1.44;81.82
50684;BME280;36654;45.042;38.994;2022-12-24T06:02:42;101277.69;;;1.48;81.97
50684;BME280;36654;45.042;38.994;2022-12-24T06:05:08;101285.63;;;1.50;81.73
50684;BME280;36654;45.042;38.994;2022-12-24T06:07:34;101266.91;;;1.42;82.05
50684;BME280;36654;45.042;38.994;2022-12-24T06:09:59;101280.63;;;1.55;81.96
50684;BME280;36654;45.042;38.994;2022-12-24T06:12:25;101270.38;;;1.58;81.60
50684;BME280;36654;45.042;38.994;2022-12-24T06:14:51;101280.91;;;1.59;81.83
50684;BME280;36654;45.042;38.994;2022-12-24T06:17:16;101211.34;;;1.30;81.69
50684;BME280;36654;45.042;38.994;2022-12-24T06:19:42;101270.13;;;1.69;81.54
50684;BME280;36654;45.042;38.994;2022-12-24T06:22:08;101256.28;;;1.70;81.37
50684;BME280;36654;45.042;38.994;2022-12-24T06:24:34;101281.00;;;1.77;81.35
50684;BME280;36654;45.042;38.994;2022-12-24T06:26:59;101273.38;;;1.80;81.29
50684;BME280;36654;45.042;38.994;2022-12-24T06:29:25;101282.34;;;1.85;81.09
50684;BME280;36654;45.042;38.994;2022-12-24T06:31:51;101284.31;;;1.89;80.98
50684;BME280;36654;45.042;38.994;2022-12-24T06:34:16;101227.84;;;1.60;80.75
50684;BME280;36654;45.042;38.994;2022-12-24T06:36:42;101288.06;;;1.94;80.79
50684;BME280;36654;45.042;38.994;2022-12-24T06:39:07;101243.09;;;1.69;80.71
50684;BME280;36654;45.042;38.994;2022-12-24T06:41:33;101296.25;;;2.01;80.50
50684;BME280;36654;45.042;38.994;2022-12-24T06:43:59;101298.16;;;2.03;80.77
50684;BME280;36654;45.042;38.994;2022-12-24T06:46:24;101285.22;;;2.06;80.92
50684;BME280;36654;45.042;38.994;2022-12-24T06:48:50;101235.44;;;1.88;80.49
50684;BME280;36654;45.042;38.994;2022-12-24T06:51:17;101291.38;;;2.23;80.28
50684;BME280;36654;45.042;38.994;2022-12-24T06:53:44;101293.34;;;2.27;80.13
50684;BME280;36654;45.042;38.994;2022-12-24T06:56:12;101268.09;;;2.28;80.01
50684;BME280;36654;45.042;38.994;2022-12-24T06:58:39;101279.94;;;2.37;79.85
50684;BME280;36654;45.042;38.994;2022-12-24T07:01:06;101278.13;;;2.36;79.83
50684;BME280;36654;45.042;38.994;2022-12-24T07:03:33;101255.56;;;2.38;79.65
50684;BME280;36654;45.042;38.994;2022-12-24T07:05:59;101281.53;;;2.52;79.41
50684;BME280;36654;45.042;38.994;2022-12-24T07:08:26;101251.69;;;2.48;79.55
50684;BME280;36654;45.042;38.994;2022-12-24T07:10:52;101237.25;;;2.38;79.56
50684;BME280;36654;45.042;38.994;2022-12-24T07:13:18;101283.16;;;2.66;79.38
50684;BME280;36654;45.042;38.994;2022-12-24T07:15:44;101278.06;;;2.69;79.40
50684;BME280;36654;45.042;38.994;2022-12-24T07:18:10;101264.19;;;2.70;79.12
50684;BME280;36654;45.042;38.994;2022-12-24T07:20:37;101265.97;;;2.71;78.99
50684;BME280;36654;45.042;38.994;2022-12-24T07:23:03;101219.47;;;2.49;79.16
50684;BME280;36654;45.042;38.994;2022-12-24T07:25:29;101265.16;;;2.72;79.08
50684;BME280;36654;45.042;38.994;2022-12-24T07:27:55;101250.59;;;2.77;78.94
50684;BME280;36654;45.042;38.994;2022-12-24T07:30:21;101263.81;;;2.80;78.84
50684;BME280;36654;45.042;38.994;2022-12-24T07:32:46;101214.94;;;2.63;78.81
50684;BME280;36654;45.042;38.994;2022-12-24T07:35:12;101224.31;;;2.76;78.71
50684;BME280;36654;45.042;38.994;2022-12-24T07:37:38;101274.41;;;3.00;78.51
50684;BME280;36654;45.042;38.994;2022-12-24T07:40:04;101269.47;;;3.06;78.54
50684;BME280;36654;45.042;38.994;2022-12-24T07:42:32;101261.63;;;3.06;78.45
50684;BME280;36654;45.042;38.994;2022-12-24T07:44:58;101256.53;;;3.09;78.40
50684;BME280;36654;45.042;38.994;2022-12-24T07:47:24;101255.84;;;3.13;78.26
50684;BME280;36654;45.042;38.994;2022-12-24T07:49:49;101257.81;;;3.17;78.07
50684;BME280;36654;45.042;38.994;2022-12-24T07:52:15;101238.03;;;3.06;78.27
50684;BME280;36654;45.042;38.994;2022-12-24T07:54:41;101263.44;;;3.25;78.02
50684;BME280;36654;45.042;38.994;2022-12-24T07:57:06;101258.44;;;3.30;77.71
50684;BME280;36654;45.042;38.994;2022-12-24T07:59:32;101258.56;;;3.33;77.44
50684;BME280;36654;45.042;38.994;2022-12-24T08:01:57;101224.28;;;3.10;77.54
50684;BME280;36654;45.042;38.994;2022-12-24T08:04:23;101260.28;;;3.32;77.40
50684;BME280;36654;45.042;38.994;2022-12-24T08:06:49;101195.38;;;3.09;77.07
50684;BME280;36654;45.042;38.994;2022-12-24T08:09:14;101223.16;;;3.23;77.33
50684;BME280;36654;45.042;38.994;2022-12-24T08:11:40;101171.56;;;3.04;77.03
50684;BME280;36654;45.042;38.994;2022-12-24T08:14:06;101182.50;;;3.13;76.99
50684;BME280;36654;45.042;38.994;2022-12-24T08:16:31;101223.28;;;3.44;76.85
50684;BME280;36654;45.042;38.994;2022-12-24T08:18:57;101179.50;;;3.23;76.76
50684;BME280;36654;45.042;38.994;2022-12-24T08:21:23;101206.56;;;3.42;76.71
50684;BME280;36654;45.042;38.994;2022-12-24T08:23:48;101163.63;;;3.20;76.71
50684;BME280;36654;45.042;38.994;2022-12-24T08:26:14;101209.50;;;3.48;76.55
50684;BME280;36654;45.042;38.994;2022-12-24T08:28:40;101178.06;;;3.30;76.71
50684;BME280;36654;45.042;38.994;2022-12-24T08:31:05;101146.09;;;3.19;76.65
50684;BME280;36654;45.042;38.994;2022-12-24T08:33:31;101197.59;;;3.55;76.46
50684;BME280;36654;45.042;38.994;2022-12-24T08:35:59;101193.38;;;3.58;76.64
50684;BME280;36654;45.042;38.994;2022-12-24T08:38:25;101165.56;;;3.42;76.50
50684;BME280;36654;45.042;38.994;2022-12-24T08:40:52;101170.88;;;3.63;76.36
50684;BME280;36654;45.042;38.994;2022-12-24T08:43:19;101190.91;;;3.81;76.48
50684;BME280;36654;45.042;38.994;2022-12-24T08:45:46;101194.72;;;3.87;76.20
50684;BME280;36654;45.042;38.994;2022-12-24T08:48:13;101192.31;;;3.92;76.27
50684;BME280;36654;45.042;38.994;2022-12-24T08:50:40;101194.19;;;3.95;75.78
50684;BME280;36654;45.042;38.994;2022-12-24T08:53:07;101189.47;;;4.07;75.82
50684;BME280;36654;45.042;38.994;2022-12-24T08:55:33;101192.38;;;4.13;75.97
50684;BME280;36654;45.042;38.994;2022-12-24T08:57:59;101180.25;;;4.17;75.66
50684;BME280;36654;45.042;38.994;2022-12-24T09:00:26;101198.81;;;4.41;75.38
50684;BME280;36654;45.042;38.994;2022-12-24T09:02:52;101169.19;;;4.43;75.50
50684;BME280;36654;45.042;38.994;2022-12-24T09:05:17;101156.78;;;4.60;74.99
50684;BME280;36654;45.042;38.994;2022-12-24T09:07:43;101183.66;;;4.96;74.38
50684;BME280;36654;45.042;38.994;2022-12-24T09:10:10;101178.28;;;5.14;74.02
50684;BME280;36654;45.042;38.994;2022-12-24T09:12:36;101147.31;;;5.07;73.29
50684;BME280;36654;45.042;38.994;2022-12-24T09:15:02;101145.28;;;5.23;72.64
50684;BME280;36654;45.042;38.994;2022-12-24T09:17:28;101161.25;;;5.50;72.40
50684;BME280;36654;45.042;38.994;2022-12-24T09:19:54;101129.09;;;5.34;71.94
50684;BME280;36654;45.042;38.994;2022-12-24T09:22:20;101140.53;;;5.59;71.66
50684;BME280;36654;45.042;38.994;2022-12-24T09:24:46;101166.75;;;5.80;71.48
50684;BME280;36654;45.042;38.994;2022-12-24T09:27:11;101105.28;;;5.54;71.10
50684;BME280;36654;45.042;38.994;2022-12-24T09:29:37;101139.72;;;5.84;70.47
50684;BME280;36654;45.042;38.994;2022-12-24T09:32:05;101146.41;;;5.74;70.29
50684;BME280;36654;45.042;38.994;2022-12-24T09:34:31;101152.75;;;5.81;70.23
50684;BME280;36654;45.042;38.994;2022-12-24T09:36:57;101139.31;;;5.73;70.09
50684;BME280;36654;45.042;38.994;2022-12-24T09:39:24;101093.09;;;5.56;70.47
50684;BME280;36654;45.042;38.994;2022-12-24T09:45:00;101138.28;;;5.92;70.27
50684;BME280;36654;45.042;38.994;2022-12-24T09:47:37;101139.31;;;5.96;69.98
50684;BME280;36654;45.042;38.994;2022-12-24T09:50:21;101088.38;;;5.71;69.80
50684;BME280;36654;45.042;38.994;2022-12-24T09:52:51;101132.38;;;5.98;69.90
50684;BME280;36654;45.042;38.994;2022-12-24T09:55:27;101137.13;;;6.08;69.86
50684;BME280;36654;45.042;38.994;2022-12-24T09:57:57;101099.50;;;5.87;69.31
50684;BME280;36654;45.042;38.994;2022-12-24T10:00:29;101138.28;;;6.16;69.32
50684;BME280;36654;45.042;38.994;2022-12-24T10:02:57;101139.31;;;6.21;69.30
50684;BME280;36654;45.042;38.994;2022-12-24T10:05:39;101115.53;;;6.18;69.30
50684;BME280;36654;45.042;38.994;2022-12-24T10:10:52;101112.13;;;6.21;68.98
50684;BME280;36654;45.042;38.994;2022-12-24T10:16:17;101120.66;;;6.39;68.28
50684;BME280;36654;45.042;38.994;2022-12-24T10:19:07;101116.28;;;6.40;68.32
50684;BME280;36654;45.042;38.994;2022-12-24T10:24:38;101129.78;;;6.49;68.44
50684;BME280;36654;45.042;38.994;2022-12-24T10:27:12;101134.38;;;6.56;68.17
50684;BME280;36654;45.042;38.994;2022-12-24T10:29:53;101136.44;;;6.65;68.08
50684;BME280;36654;45.042;38.994;2022-12-24T10:34:57;101132.28;;;6.72;68.18
50684;BME280;36654;45.042;38.994;2022-12-24T10:37:24;101120.97;;;6.74;68.04
50684;BME280;36654;45.042;38.994;2022-12-24T10:39:53;101077.09;;;6.49;68.08
50684;BME280;36654;45.042;38.994;2022-12-24T10:42:20;101114.88;;;6.77;67.64
50684;BME280;36654;45.042;38.994;2022-12-24T10:44:55;101080.00;;;6.58;67.86
50684;BME280;36654;45.042;38.994;2022-12-24T10:47:23;101120.44;;;6.86;67.77
50684;BME280;36654;45.042;38.994;2022-12-24T10:49:56;101120.56;;;6.89;67.70
50684;BME280;36654;45.042;38.994;2022-12-24T10:52:26;101079.59;;;6.72;67.83
50684;BME280;36654;45.042;38.994;2022-12-24T10:57:41;101117.94;;;6.90;67.76
50684;BME280;36654;45.042;38.994;2022-12-24T11:00:18;101109.91;;;6.86;67.72
50684;BME280;36654;45.042;38.994;2022-12-24T11:02:46;101124.25;;;6.94;67.40
50684;BME280;36654;45.042;38.994;2022-12-24T11:05:41;101127.91;;;6.99;67.53
50684;BME280;36654;45.042;38.994;2022-12-24T11:10:53;101130.66;;;7.04;67.42
50684;BME280;36654;45.042;38.994;2022-12-24T11:13:27;101123.69;;;7.04;67.44
50684;BME280;36654;45.042;38.994;2022-12-24T11:18:36;101127.00;;;6.99;67.05
50684;BME280;36654;45.042;38.994;2022-12-24T11:21:04;101137.81;;;7.06;67.06
50684;BME280;36654;45.042;38.994;2022-12-24T11:23:30;101120.09;;;7.02;66.84
50684;BME280;36654;45.042;38.994;2022-12-24T11:25:56;101126.47;;;7.09;66.87
50684;BME280;36654;45.042;38.994;2022-12-24T11:31:02;101128.47;;;7.18;66.56
50684;BME280;36654;45.042;38.994;2022-12-24T11:33:29;101126.59;;;7.13;66.60
50684;BME280;36654;45.042;38.994;2022-12-24T11:36:05;101078.38;;;6.89;66.66
50684;BME280;36654;45.042;38.994;2022-12-24T11:38:33;101128.47;;;7.18;66.74
50684;BME280;36654;45.042;38.994;2022-12-24T11:41:01;101110.59;;;7.07;66.85
50684;BME280;36654;45.042;38.994;2022-12-24T11:43:33;101133.09;;;7.25;66.92
50684;BME280;36654;45.042;38.994;2022-12-24T11:49:16;101096.47;;;7.05;66.97
50684;BME280;36654;45.042;38.994;2022-12-24T11:54:33;101136.78;;;7.30;66.69
50684;BME280;36654;45.042;38.994;2022-12-24T11:57:02;101134.06;;;7.27;66.42
50684;BME280;36654;45.042;38.994;2022-12-24T11:59:36;101113.53;;;7.18;66.32
50684;BME280;36654;45.042;38.994;2022-12-24T12:02:35;101136.91;;;7.34;65.80
50684;BME280;36654;45.042;38.994;2022-12-24T12:05:09;101120.47;;;7.15;65.74
50684;BME280;36654;45.042;38.994;2022-12-24T12:07:37;101139.19;;;7.24;65.52
50684;BME280;36654;45.042;38.994;2022-12-24T12:10:31;101158.91;;;7.35;65.45
50684;BME280;36654;45.042;38.994;2022-12-24T12:13:19;101146.59;;;7.34;65.16
50684;BME280;36654;45.042;38.994;2022-12-24T12:15:51;101142.69;;;7.23;65.10
50684;BME280;36654;45.042;38.994;2022-12-24T12:18:31;101157.00;;;7.31;65.01
50684;BME280;36654;45.042;38.994;2022-12-24T12:21:03;101146.19;;;7.22;65.42
50684;BME280;36654;45.042;38.994;2022-12-24T12:23:36;101150.75;;;7.27;65.24
50684;BME280;36654;45.042;38.994;2022-12-24T12:26:24;101160.44;;;7.27;65.01
50684;BME280;36654;45.042;38.994;2022-12-24T12:29:00;101159.47;;;7.25;65.16
50684;BME280;36654;45.042;38.994;2022-12-24T12:31:37;101169.16;;;7.26;65.08
50684;BME280;36654;45.042;38.994;2022-12-24T12:34:30;101105.00;;;6.98;65.02
50684;BME280;36654;45.042;38.994;2022-12-24T12:37:05;101150.38;;;7.15;65.18
50684;BME280;36654;45.042;38.994;2022-12-24T12:39:34;101174.25;;;7.20;65.22
50684;BME280;36654;45.042;38.994;2022-12-24T12:42:11;101167.16;;;7.19;65.29
50684;BME280;36654;45.042;38.994;2022-12-24T12:45:02;101163.66;;;7.18;65.24
50684;BME280;36654;45.042;38.994;2022-12-24T12:47:55;101126.81;;;6.93;65.15
50684;BME280;36654;45.042;38.994;2022-12-24T12:50:35;101174.97;;;7.14;65.29
50684;BME280;36654;45.042;38.994;2022-12-24T12:56:18;101169.53;;;7.09;65.21
50684;BME280;36654;45.042;38.994;2022-12-24T12:58:51;101184.31;;;7.04;65.35
50684;BME280;36654;45.042;38.994;2022-12-24T13:12:32;101183.69;;;6.86;66.28
50684;BME280;36654;45.042;38.994;2022-12-24T13:15:06;101187.91;;;6.81;66.24
50684;BME280;36654;45.042;38.994;2022-12-24T13:22:33;101123.06;;;6.33;66.72
50684;BME280;36654;45.042;38.994;2022-12-24T13:24:59;101186.34;;;6.60;66.67
50684;BME280;36654;45.042;38.994;2022-12-24T13:27:25;101192.66;;;6.65;66.94
50684;BME280;36654;45.042;38.994;2022-12-24T13:35:00;101188.78;;;6.54;67.41
50684;BME280;36654;45.042;38.994;2022-12-24T13:50:40;101197.81;;;6.37;68.20
50684;BME280;36654;45.042;38.994;2022-12-24T13:53:26;101212.78;;;6.38;68.33
50684;BME280;36654;45.042;38.994;2022-12-24T13:55:58;101210.03;;;6.35;68.61
50684;BME280;36654;45.042;38.994;2022-12-24T13:58:28;101209.81;;;6.29;68.30
50684;BME280;36654;45.042;38.994;2022-12-24T14:01:12;101214.25;;;6.30;68.62
50684;BME280;36654;45.042;38.994;2022-12-24T14:03:54;101208.72;;;6.22;69.00
50684;BME280;36654;45.042;38.994;2022-12-24T14:06:32;101212.34;;;6.25;68.89
50684;BME280;36654;45.042;38.994;2022-12-24T14:09:11;101203.31;;;6.19;69.11
50684;BME280;36654;45.042;38.994;2022-12-24T14:14:37;101205.66;;;6.11;69.44
50684;BME280;36654;45.042;38.994;2022-12-24T14:17:22;101218.09;;;6.15;69.48
50684;BME280;36654;45.042;38.994;2022-12-24T14:19:58;101208.09;;;6.05;69.51
50684;BME280;36654;45.042;38.994;2022-12-24T14:22:30;101165.63;;;5.73;69.38
50684;BME280;36654;45.042;38.994;2022-12-24T14:25:02;101231.88;;;6.08;69.50
50684;BME280;36654;45.042;38.994;2022-12-24T14:27:42;101215.03;;;6.03;69.72
50684;BME280;36654;45.042;38.994;2022-12-24T14:30:20;101233.44;;;6.03;69.81
50684;BME280;36654;45.042;38.994;2022-12-24T14:32:49;101207.50;;;5.91;70.00
50684;BME280;36654;45.042;38.994;2022-12-24T14:35:23;101187.91;;;5.83;69.87
50684;BME280;36654;45.042;38.994;2022-12-24T14:38:04;101211.25;;;5.96;69.94
50684;BME280;36654;45.042;38.994;2022-12-24T14:40:33;101210.34;;;5.96;69.92
50684;BME280;36654;45.042;38.994;2022-12-24T14:43:24;101223.69;;;6.00;70.22